sensor_id;sensor_type;location;lat;lon;timestamp;P1;durP1;ratioP1;P2;durP2;ratioP2
72850;SDS011;61171;43.848;10.510;2022-12-05T00:00:51;14.05;;;8.95;;
72850;SDS011;61171;43.848;10.510;2022-12-05T00:02:51;13.40;;;7.87;;
72850;SDS011;61171;43.848;10.510;2022-12-05T00:04:52;16.40;;;9.27;;
72850;SDS011;61171;43.848;10.510;2022-12-05T00:06:52;15.87;;;9.10;;
72850;SDS011;61171;43.848;10.510;2022-12-05T00:08:52;15.03;;;8.33;;
72850;SDS011;61171;43.848;10.510;2022-12-05T00:10:52;16.83;;;7.70;;
72850;SDS011;61171;43.848;10.510;2022-12-05T00:12:53;14.87;;;7.50;;
72850;SDS011;61171;43.848;10.510;2022-12-05T00:14:53;15.87;;;7.90;;
72850;SDS011;61171;43.848;10.510;2022-12-05T00:16:53;12.47;;;7.23;;
72850;SDS011;61171;43.848;10.510;2022-12-05T00:18:54;13.03;;;7.93;;
72850;SDS011;61171;43.848;10.510;2022-12-05T00:20:54;13.98;;;7.88;;
72850;SDS011;61171;43.848;10.510;2022-12-05T00:22:55;14.93;;;8.20;;
72850;SDS011;61171;43.848;10.510;2022-12-05T00:24:55;14.07;;;7.77;;
72850;SDS011;61171;43.848;10.510;2022-12-05T00:26:55;14.73;;;8.73;;
72850;SDS011;61171;43.848;10.510;2022-12-05T00:28:56;15.60;;;8.07;;
72850;SDS011;61171;43.848;10.510;2022-12-05T00:30:56;18.58;;;8.30;;
72850;SDS011;61171;43.848;10.510;2022-12-05T00:32:56;14.27;;;7.47;;
72850;SDS011;61171;43.848;10.510;2022-12-05T00:34:57;18.07;;;8.83;;
72850;SDS011;61171;43.848;10.510;2022-12-05T00:36:57;16.73;;;7.97;;
72850;SDS011;61171;43.848;10.510;2022-12-05T00:38:58;17.43;;;10.60;;
72850;SDS011;61171;43.848;10.510;2022-12-05T00:41:06;15.77;;;9.00;;
72850;SDS011;61171;43.848;10.510;2022-12-05T00:43:06;16.55;;;8.40;;
72850;SDS011;61171;43.848;10.510;2022-12-05T00:45:07;17.80;;;8.23;;
72850;SDS011;61171;43.848;10.510;2022-12-05T00:47:07;16.63;;;8.27;;
72850;SDS011;61171;43.848;10.510;2022-12-05T00:49:09;19.80;;;11.60;;
72850;SDS011;61171;43.848;10.510;2022-12-05T00:51:10;18.20;;;9.48;;
72850;SDS011;61171;43.848;10.510;2022-12-05T00:53:11;15.00;;;8.90;;
72850;SDS011;61171;43.848;10.510;2022-12-05T00:55:11;20.97;;;9.50;;
72850;SDS011;61171;43.848;10.510;2022-12-05T00:57:11;19.27;;;9.30;;
72850;SDS011;61171;43.848;10.510;2022-12-05T00:59:16;19.90;;;9.70;;
72850;SDS011;61171;43.848;10.510;2022-12-05T01:01:17;19.40;;;8.98;;
72850;SDS011;61171;43.848;10.510;2022-12-05T01:03:18;19.30;;;9.80;;
72850;SDS011;61171;43.848;10.510;2022-12-05T01:05:18;17.43;;;8.67;;
72850;SDS011;61171;43.848;10.510;2022-12-05T01:07:18;17.57;;;9.33;;
72850;SDS011;61171;43.848;10.510;2022-12-05T01:53:08;11.50;;;5.40;;
72850;SDS011;61171;43.848;10.510;2022-12-05T01:55:10;7.57;;;4.87;;
72850;SDS011;61171;43.848;10.510;2022-12-05T01:57:11;8.55;;;5.40;;
72850;SDS011;61171;43.848;10.510;2022-12-05T01:59:12;10.03;;;5.33;;
72850;SDS011;61171;43.848;10.510;2022-12-05T02:01:13;9.73;;;5.28;;
72850;SDS011;61171;43.848;10.510;2022-12-05T02:03:16;11.60;;;5.85;;
72850;SDS011;61171;43.848;10.510;2022-12-05T02:05:19;9.13;;;5.53;;
72850;SDS011;61171;43.848;10.510;2022-12-05T02:07:20;11.65;;;5.82;;
72850;SDS011;61171;43.848;10.510;2022-12-05T02:09:21;12.50;;;6.55;;
72850;SDS011;61171;43.848;10.510;2022-12-05T02:11:22;12.47;;;7.77;;
72850;SDS011;61171;43.848;10.510;2022-12-05T02:15:39;9.40;;;5.43;;
72850;SDS011;61171;43.848;10.510;2022-12-05T02:31:14;12.97;;;7.30;;
72850;SDS011;61171;43.848;10.510;2022-12-05T02:37:31;12.68;;;7.00;;
72850;SDS011;61171;43.848;10.510;2022-12-05T02:41:39;12.30;;;6.40;;
72850;SDS011;61171;43.848;10.510;2022-12-05T02:45:40;10.67;;;5.93;;
72850;SDS011;61171;43.848;10.510;2022-12-05T02:47:48;12.93;;;7.33;;
72850;SDS011;61171;43.848;10.510;2022-12-05T02:49:49;11.63;;;7.10;;
72850;SDS011;61171;43.848;10.510;2022-12-05T02:51:51;11.07;;;7.07;;
72850;SDS011;61171;43.848;10.510;2022-12-05T02:53:52;12.70;;;6.75;;
72850;SDS011;61171;43.848;10.510;2022-12-05T02:55:54;10.70;;;6.40;;
72850;SDS011;61171;43.848;10.510;2022-12-05T02:57:56;12.27;;;6.60;;
72850;SDS011;61171;43.848;10.510;2022-12-05T02:59:57;10.23;;;6.32;;
72850;SDS011;61171;43.848;10.510;2022-12-05T03:01:57;12.17;;;7.07;;
72850;SDS011;61171;43.848;10.510;2022-12-05T03:03:58;14.63;;;8.63;;
72850;SDS011;61171;43.848;10.510;2022-12-05T03:06:02;10.43;;;6.57;;
72850;SDS011;61171;43.848;10.510;2022-12-05T03:08:04;11.68;;;6.40;;
72850;SDS011;61171;43.848;10.510;2022-12-05T03:10:08;10.98;;;6.50;;
72850;SDS011;61171;43.848;10.510;2022-12-05T03:12:11;11.50;;;6.70;;
72850;SDS011;61171;43.848;10.510;2022-12-05T03:14:14;12.52;;;7.60;;
72850;SDS011;61171;43.848;10.510;2022-12-05T03:16:21;12.35;;;7.75;;
72850;SDS011;61171;43.848;10.510;2022-12-05T03:18:25;13.18;;;8.18;;
72850;SDS011;61171;43.848;10.510;2022-12-05T03:20:27;14.63;;;8.25;;
72850;SDS011;61171;43.848;10.510;2022-12-05T03:22:32;13.27;;;8.00;;
72850;SDS011;61171;43.848;10.510;2022-12-05T03:24:35;12.55;;;7.82;;
72850;SDS011;61171;43.848;10.510;2022-12-05T03:26:40;12.45;;;7.47;;
72850;SDS011;61171;43.848;10.510;2022-12-05T03:29:30;10.68;;;6.65;;
72850;SDS011;61171;43.848;10.510;2022-12-05T03:31:08;12.02;;;7.35;;
72850;SDS011;61171;43.848;10.510;2022-12-05T03:33:10;11.40;;;7.03;;
72850;SDS011;61171;43.848;10.510;2022-12-05T03:37:31;14.88;;;8.30;;
72850;SDS011;61171;43.848;10.510;2022-12-05T03:39:34;17.63;;;8.38;;
72850;SDS011;61171;43.848;10.510;2022-12-05T03:46:04;12.63;;;7.57;;
72850;SDS011;61171;43.848;10.510;2022-12-05T03:50:19;13.18;;;7.10;;
72850;SDS011;61171;43.848;10.510;2022-12-05T03:52:43;11.50;;;6.65;;
72850;SDS011;61171;43.848;10.510;2022-12-05T03:55:00;10.35;;;6.65;;
72850;SDS011;61171;43.848;10.510;2022-12-05T03:57:03;11.17;;;6.97;;
72850;SDS011;61171;43.848;10.510;2022-12-05T04:01:24;12.73;;;7.32;;
72850;SDS011;61171;43.848;10.510;2022-12-05T04:03:46;11.43;;;7.30;;
72850;SDS011;61171;43.848;10.510;2022-12-05T04:05:54;11.50;;;6.88;;
72850;SDS011;61171;43.848;10.510;2022-12-05T04:07:56;12.27;;;6.97;;
72850;SDS011;61171;43.848;10.510;2022-12-05T04:09:58;12.02;;;7.03;;
72850;SDS011;61171;43.848;10.510;2022-12-05T04:12:01;10.75;;;6.60;;
72850;SDS011;61171;43.848;10.510;2022-12-05T04:16:11;12.70;;;7.10;;
72850;SDS011;61171;43.848;10.510;2022-12-05T04:18:31;12.43;;;6.90;;
72850;SDS011;61171;43.848;10.510;2022-12-05T04:20:38;11.95;;;6.90;;
72850;SDS011;61171;43.848;10.510;2022-12-05T04:23:01;11.43;;;6.47;;
72850;SDS011;61171;43.848;10.510;2022-12-05T04:25:01;10.90;;;6.23;;
72850;SDS011;61171;43.848;10.510;2022-12-05T04:27:28;11.10;;;6.93;;
72850;SDS011;61171;43.848;10.510;2022-12-05T04:29:30;11.00;;;6.30;;
72850;SDS011;61171;43.848;10.510;2022-12-05T04:31:33;12.45;;;6.43;;
72850;SDS011;61171;43.848;10.510;2022-12-05T04:33:51;9.77;;;6.07;;
72850;SDS011;61171;43.848;10.510;2022-12-05T04:38:03;12.13;;;6.25;;
72850;SDS011;61171;43.848;10.510;2022-12-05T04:40:06;11.75;;;6.65;;
72850;SDS011;61171;43.848;10.510;2022-12-05T04:42:09;10.52;;;6.28;;
72850;SDS011;61171;43.848;10.510;2022-12-05T04:44:12;11.35;;;5.93;;
72850;SDS011;61171;43.848;10.510;2022-12-05T04:46:15;10.33;;;5.93;;
72850;SDS011;61171;43.848;10.510;2022-12-05T04:48:17;10.10;;;5.80;;
72850;SDS011;61171;43.848;10.510;2022-12-05T04:50:19;9.40;;;5.70;;
72850;SDS011;61171;43.848;10.510;2022-12-05T04:52:20;9.70;;;5.70;;
72850;SDS011;61171;43.848;10.510;2022-12-05T04:54:31;10.33;;;5.70;;
72850;SDS011;61171;43.848;10.510;2022-12-05T04:56:33;9.70;;;5.65;;
72850;SDS011;61171;43.848;10.510;2022-12-05T04:58:35;9.93;;;6.03;;
72850;SDS011;61171;43.848;10.510;2022-12-05T05:01:18;10.80;;;5.73;;
72850;SDS011;61171;43.848;10.510;2022-12-05T05:03:02;10.13;;;5.93;;
72850;SDS011;61171;43.848;10.510;2022-12-05T05:05:04;11.17;;;6.40;;
72850;SDS011;61171;43.848;10.510;2022-12-05T05:07:07;10.68;;;5.65;;
72850;SDS011;61171;43.848;10.510;2022-12-05T05:09:08;12.02;;;5.57;;
72850;SDS011;61171;43.848;10.510;2022-12-05T05:11:14;10.07;;;5.60;;
72850;SDS011;61171;43.848;10.510;2022-12-05T05:13:14;9.15;;;5.72;;
72850;SDS011;61171;43.848;10.510;2022-12-05T05:15:14;14.70;;;7.10;;
72850;SDS011;61171;43.848;10.510;2022-12-05T05:17:15;13.33;;;7.50;;
72850;SDS011;61171;43.848;10.510;2022-12-05T05:19:15;10.90;;;6.43;;
72850;SDS011;61171;43.848;10.510;2022-12-05T05:23:16;14.67;;;8.03;;
72850;SDS011;61171;43.848;10.510;2022-12-05T05:25:16;14.20;;;8.03;;
72850;SDS011;61171;43.848;10.510;2022-12-05T05:27:17;17.27;;;10.45;;
72850;SDS011;61171;43.848;10.510;2022-12-05T05:29:17;19.20;;;11.20;;
72850;SDS011;61171;43.848;10.510;2022-12-05T05:31:18;17.53;;;10.70;;
72850;SDS011;61171;43.848;10.510;2022-12-05T05:33:18;21.45;;;13.40;;
72850;SDS011;61171;43.848;10.510;2022-12-05T05:35:19;21.93;;;14.67;;
72850;SDS011;61171;43.848;10.510;2022-12-05T05:37:20;23.52;;;14.73;;
72850;SDS011;61171;43.848;10.510;2022-12-05T05:39:20;21.53;;;13.57;;
72850;SDS011;61171;43.848;10.510;2022-12-05T05:43:24;19.50;;;12.07;;
72850;SDS011;61171;43.848;10.510;2022-12-05T05:45:24;18.70;;;11.50;;
72850;SDS011;61171;43.848;10.510;2022-12-05T05:47:24;19.17;;;11.33;;
72850;SDS011;61171;43.848;10.510;2022-12-05T05:49:24;18.67;;;12.27;;
72850;SDS011;61171;43.848;10.510;2022-12-05T05:51:25;24.00;;;13.50;;
72850;SDS011;61171;43.848;10.510;2022-12-05T05:53:28;23.33;;;13.32;;
72850;SDS011;61171;43.848;10.510;2022-12-05T05:55:28;20.33;;;12.70;;
72850;SDS011;61171;43.848;10.510;2022-12-05T05:57:29;19.07;;;11.83;;
72850;SDS011;61171;43.848;10.510;2022-12-05T05:59:29;28.90;;;16.97;;
72850;SDS011;61171;43.848;10.510;2022-12-05T06:01:29;29.53;;;17.53;;
72850;SDS011;61171;43.848;10.510;2022-12-05T06:03:30;23.30;;;14.07;;
72850;SDS011;61171;43.848;10.510;2022-12-05T06:05:30;25.97;;;14.80;;
72850;SDS011;61171;43.848;10.510;2022-12-05T06:07:30;22.70;;;13.40;;
72850;SDS011;61171;43.848;10.510;2022-12-05T06:09:31;19.07;;;11.80;;
72850;SDS011;61171;43.848;10.510;2022-12-05T06:11:31;20.97;;;12.70;;
72850;SDS011;61171;43.848;10.510;2022-12-05T06:13:31;21.30;;;11.83;;
72850;SDS011;61171;43.848;10.510;2022-12-05T06:15:32;20.43;;;12.80;;
72850;SDS011;61171;43.848;10.510;2022-12-05T06:17:32;18.37;;;11.67;;
72850;SDS011;61171;43.848;10.510;2022-12-05T06:19:32;22.25;;;12.13;;
72850;SDS011;61171;43.848;10.510;2022-12-05T06:21:32;22.40;;;12.87;;
72850;SDS011;61171;43.848;10.510;2022-12-05T06:23:33;19.43;;;12.13;;
72850;SDS011;61171;43.848;10.510;2022-12-05T06:25:34;19.08;;;12.13;;
72850;SDS011;61171;43.848;10.510;2022-12-05T06:27:34;20.17;;;11.93;;
72850;SDS011;61171;43.848;10.510;2022-12-05T06:29:34;23.57;;;14.17;;
72850;SDS011;61171;43.848;10.510;2022-12-05T06:31:35;23.77;;;13.80;;
72850;SDS011;61171;43.848;10.510;2022-12-05T06:33:35;24.77;;;14.70;;
72850;SDS011;61171;43.848;10.510;2022-12-05T06:35:36;21.03;;;13.47;;
72850;SDS011;61171;43.848;10.510;2022-12-05T06:37:36;23.23;;;12.73;;
72850;SDS011;61171;43.848;10.510;2022-12-05T06:39:37;20.87;;;12.40;;
72850;SDS011;61171;43.848;10.510;2022-12-05T06:41:37;20.97;;;13.37;;
72850;SDS011;61171;43.848;10.510;2022-12-05T06:43:38;21.87;;;13.07;;
72850;SDS011;61171;43.848;10.510;2022-12-05T06:45:38;18.23;;;11.73;;
72850;SDS011;61171;43.848;10.510;2022-12-05T06:47:39;20.33;;;12.37;;
72850;SDS011;61171;43.848;10.510;2022-12-05T06:49:39;23.50;;;13.47;;
72850;SDS011;61171;43.848;10.510;2022-12-05T06:51:39;26.23;;;15.83;;
72850;SDS011;61171;43.848;10.510;2022-12-05T06:53:39;23.67;;;14.43;;
72850;SDS011;61171;43.848;10.510;2022-12-05T06:55:40;23.80;;;12.90;;
72850;SDS011;61171;43.848;10.510;2022-12-05T06:57:40;23.03;;;13.53;;
72850;SDS011;61171;43.848;10.510;2022-12-05T06:59:41;21.43;;;13.00;;
72850;SDS011;61171;43.848;10.510;2022-12-05T07:01:41;20.60;;;12.52;;
72850;SDS011;61171;43.848;10.510;2022-12-05T07:03:41;19.70;;;12.10;;
72850;SDS011;61171;43.848;10.510;2022-12-05T07:05:47;21.63;;;12.52;;
72850;SDS011;61171;43.848;10.510;2022-12-05T07:07:48;19.70;;;11.77;;
72850;SDS011;61171;43.848;10.510;2022-12-05T07:09:48;18.03;;;10.90;;
72850;SDS011;61171;43.848;10.510;2022-12-05T07:11:52;16.83;;;10.13;;
72850;SDS011;61171;43.848;10.510;2022-12-05T07:13:53;18.93;;;11.47;;
72850;SDS011;61171;43.848;10.510;2022-12-05T07:15:53;16.73;;;11.40;;
72850;SDS011;61171;43.848;10.510;2022-12-05T07:17:53;17.30;;;11.23;;
72850;SDS011;61171;43.848;10.510;2022-12-05T07:19:53;15.10;;;9.80;;
72850;SDS011;61171;43.848;10.510;2022-12-05T07:21:54;17.10;;;10.87;;
72850;SDS011;61171;43.848;10.510;2022-12-05T07:23:54;18.47;;;10.73;;
72850;SDS011;61171;43.848;10.510;2022-12-05T07:25:54;16.83;;;10.83;;
72850;SDS011;61171;43.848;10.510;2022-12-05T07:27:54;21.27;;;12.33;;
72850;SDS011;61171;43.848;10.510;2022-12-05T07:29:55;16.17;;;10.83;;
72850;SDS011;61171;43.848;10.510;2022-12-05T07:31:55;20.27;;;11.38;;
72850;SDS011;61171;43.848;10.510;2022-12-05T07:33:55;17.87;;;11.13;;
72850;SDS011;61171;43.848;10.510;2022-12-05T07:36:00;20.30;;;11.50;;
72850;SDS011;61171;43.848;10.510;2022-12-05T07:38:01;17.08;;;9.90;;
72850;SDS011;61171;43.848;10.510;2022-12-05T07:40:01;19.05;;;10.52;;
72850;SDS011;61171;43.848;10.510;2022-12-05T07:42:02;18.13;;;10.73;;
72850;SDS011;61171;43.848;10.510;2022-12-05T07:44:02;16.57;;;9.63;;
72850;SDS011;61171;43.848;10.510;2022-12-05T07:46:03;15.87;;;10.07;;
72850;SDS011;61171;43.848;10.510;2022-12-05T07:48:03;16.38;;;9.55;;
72850;SDS011;61171;43.848;10.510;2022-12-05T07:50:04;17.33;;;9.83;;
72850;SDS011;61171;43.848;10.510;2022-12-05T07:52:04;14.67;;;9.63;;
72850;SDS011;61171;43.848;10.510;2022-12-05T07:54:05;14.63;;;9.73;;
72850;SDS011;61171;43.848;10.510;2022-12-05T07:56:06;17.65;;;10.50;;
72850;SDS011;61171;43.848;10.510;2022-12-05T07:58:07;16.10;;;10.65;;
72850;SDS011;61171;43.848;10.510;2022-12-05T08:00:07;17.73;;;10.20;;
72850;SDS011;61171;43.848;10.510;2022-12-05T08:02:07;23.03;;;10.73;;
72850;SDS011;61171;43.848;10.510;2022-12-05T08:04:08;18.80;;;10.03;;
72850;SDS011;61171;43.848;10.510;2022-12-05T08:06:12;17.57;;;9.93;;
72850;SDS011;61171;43.848;10.510;2022-12-05T08:08:13;16.20;;;9.67;;
72850;SDS011;61171;43.848;10.510;2022-12-05T08:10:13;19.67;;;9.63;;
72850;SDS011;61171;43.848;10.510;2022-12-05T08:12:13;18.03;;;10.63;;
72850;SDS011;61171;43.848;10.510;2022-12-05T08:14:14;18.20;;;10.83;;
72850;SDS011;61171;43.848;10.510;2022-12-05T08:16:21;20.70;;;11.80;;
72850;SDS011;61171;43.848;10.510;2022-12-05T08:18:21;17.73;;;10.93;;
72850;SDS011;61171;43.848;10.510;2022-12-05T08:20:22;18.97;;;11.60;;
72850;SDS011;61171;43.848;10.510;2022-12-05T08:22:25;20.30;;;11.60;;
72850;SDS011;61171;43.848;10.510;2022-12-05T08:24:28;17.27;;;11.03;;
72850;SDS011;61171;43.848;10.510;2022-12-05T08:26:29;17.90;;;10.98;;
72850;SDS011;61171;43.848;10.510;2022-12-05T08:28:30;20.03;;;11.87;;
72850;SDS011;61171;43.848;10.510;2022-12-05T08:30:30;18.70;;;11.82;;
72850;SDS011;61171;43.848;10.510;2022-12-05T08:32:32;19.30;;;11.10;;
72850;SDS011;61171;43.848;10.510;2022-12-05T08:34:32;19.57;;;11.77;;
72850;SDS011;61171;43.848;10.510;2022-12-05T08:36:32;18.00;;;11.10;;
72850;SDS011;61171;43.848;10.510;2022-12-05T08:38:33;18.50;;;10.53;;
72850;SDS011;61171;43.848;10.510;2022-12-05T08:40:33;19.47;;;12.23;;
72850;SDS011;61171;43.848;10.510;2022-12-05T08:42:34;18.47;;;12.13;;
72850;SDS011;61171;43.848;10.510;2022-12-05T08:44:34;20.23;;;13.60;;
72850;SDS011;61171;43.848;10.510;2022-12-05T08:46:35;20.13;;;12.10;;
72850;SDS011;61171;43.848;10.510;2022-12-05T08:48:36;21.00;;;13.32;;
72850;SDS011;61171;43.848;10.510;2022-12-05T08:50:37;22.57;;;12.73;;
72850;SDS011;61171;43.848;10.510;2022-12-05T08:52:38;19.30;;;11.50;;
72850;SDS011;61171;43.848;10.510;2022-12-05T08:54:38;19.00;;;11.37;;
72850;SDS011;61171;43.848;10.510;2022-12-05T08:56:38;18.83;;;12.40;;
72850;SDS011;61171;43.848;10.510;2022-12-05T08:58:39;19.50;;;11.87;;
72850;SDS011;61171;43.848;10.510;2022-12-05T09:00:40;19.17;;;12.60;;
72850;SDS011;61171;43.848;10.510;2022-12-05T09:02:40;19.65;;;11.48;;
72850;SDS011;61171;43.848;10.510;2022-12-05T09:04:41;17.07;;;11.07;;
72850;SDS011;61171;43.848;10.510;2022-12-05T09:06:41;15.87;;;9.83;;
72850;SDS011;61171;43.848;10.510;2022-12-05T09:08:42;16.37;;;10.43;;
72850;SDS011;61171;43.848;10.510;2022-12-05T09:10:42;17.05;;;10.63;;
72850;SDS011;61171;43.848;10.510;2022-12-05T09:12:42;19.77;;;10.93;;
72850;SDS011;61171;43.848;10.510;2022-12-05T09:14:43;17.13;;;11.53;;
72850;SDS011;61171;43.848;10.510;2022-12-05T09:16:43;15.87;;;11.30;;
72850;SDS011;61171;43.848;10.510;2022-12-05T09:18:44;19.35;;;13.05;;
72850;SDS011;61171;43.848;10.510;2022-12-05T09:20:45;19.43;;;12.57;;
72850;SDS011;61171;43.848;10.510;2022-12-05T09:22:45;23.43;;;13.83;;
72850;SDS011;61171;43.848;10.510;2022-12-05T09:24:45;22.17;;;14.87;;
72850;SDS011;61171;43.848;10.510;2022-12-05T09:26:45;19.70;;;12.30;;
72850;SDS011;61171;43.848;10.510;2022-12-05T09:28:46;24.07;;;16.00;;
72850;SDS011;61171;43.848;10.510;2022-12-05T09:30:54;20.20;;;12.70;;
72850;SDS011;61171;43.848;10.510;2022-12-05T09:32:54;20.80;;;12.90;;
72850;SDS011;61171;43.848;10.510;2022-12-05T09:34:54;19.80;;;13.07;;
72850;SDS011;61171;43.848;10.510;2022-12-05T09:36:55;20.40;;;12.47;;
72850;SDS011;61171;43.848;10.510;2022-12-05T09:39:00;18.17;;;12.30;;
72850;SDS011;61171;43.848;10.510;2022-12-05T09:46:32;17.88;;;11.95;;
72850;SDS011;61171;43.848;10.510;2022-12-05T09:48:28;17.83;;;12.80;;
72850;SDS011;61171;43.848;10.510;2022-12-05T09:50:29;17.87;;;11.70;;
72850;SDS011;61171;43.848;10.510;2022-12-05T09:52:34;21.38;;;13.63;;
72850;SDS011;61171;43.848;10.510;2022-12-05T09:54:36;19.47;;;12.13;;
72850;SDS011;61171;43.848;10.510;2022-12-05T09:56:37;20.03;;;12.07;;
72850;SDS011;61171;43.848;10.510;2022-12-05T10:00:40;18.85;;;12.50;;
72850;SDS011;61171;43.848;10.510;2022-12-05T10:05:05;17.85;;;11.25;;
72850;SDS011;61171;43.848;10.510;2022-12-05T10:11:34;17.17;;;10.23;;
72850;SDS011;61171;43.848;10.510;2022-12-05T10:15:41;14.95;;;10.15;;
72850;SDS011;61171;43.848;10.510;2022-12-05T10:17:45;16.95;;;10.00;;
72850;SDS011;61171;43.848;10.510;2022-12-05T10:19:46;17.50;;;10.70;;
72850;SDS011;61171;43.848;10.510;2022-12-05T10:24:13;15.13;;;9.18;;
72850;SDS011;61171;43.848;10.510;2022-12-05T10:26:14;14.27;;;8.60;;
72850;SDS011;61171;43.848;10.510;2022-12-05T10:28:25;14.15;;;7.97;;
72850;SDS011;61171;43.848;10.510;2022-12-05T10:30:28;14.80;;;8.30;;
72850;SDS011;61171;43.848;10.510;2022-12-05T10:34:30;12.80;;;7.57;;
72850;SDS011;61171;43.848;10.510;2022-12-05T10:36:32;13.13;;;8.05;;
72850;SDS011;61171;43.848;10.510;2022-12-05T10:38:33;13.40;;;7.93;;
72850;SDS011;61171;43.848;10.510;2022-12-05T10:40:34;11.50;;;7.33;;
72850;SDS011;61171;43.848;10.510;2022-12-05T10:42:35;11.93;;;6.77;;
72850;SDS011;61171;43.848;10.510;2022-12-05T10:44:35;11.47;;;6.57;;
72850;SDS011;61171;43.848;10.510;2022-12-05T10:46:36;10.67;;;6.87;;
72850;SDS011;61171;43.848;10.510;2022-12-05T10:48:38;11.03;;;6.80;;
72850;SDS011;61171;43.848;10.510;2022-12-05T10:50:38;11.38;;;7.22;;
72850;SDS011;61171;43.848;10.510;2022-12-05T10:52:39;11.17;;;6.40;;
72850;SDS011;61171;43.848;10.510;2022-12-05T10:54:43;9.00;;;6.10;;
72850;SDS011;61171;43.848;10.510;2022-12-05T10:56:53;11.30;;;6.47;;
72850;SDS011;61171;43.848;10.510;2022-12-05T10:58:54;9.52;;;6.13;;
72850;SDS011;61171;43.848;10.510;2022-12-05T11:01:06;9.77;;;6.15;;
72850;SDS011;61171;43.848;10.510;2022-12-05T11:03:14;12.05;;;6.95;;
72850;SDS011;61171;43.848;10.510;2022-12-05T11:05:28;10.67;;;6.40;;
72850;SDS011;61171;43.848;10.510;2022-12-05T11:07:29;9.32;;;5.88;;
72850;SDS011;61171;43.848;10.510;2022-12-05T11:09:37;11.15;;;5.78;;
72850;SDS011;61171;43.848;10.510;2022-12-05T11:11:38;10.55;;;6.35;;
72850;SDS011;61171;43.848;10.510;2022-12-05T11:13:42;11.43;;;6.13;;
72850;SDS011;61171;43.848;10.510;2022-12-05T11:15:50;10.55;;;6.43;;
72850;SDS011;61171;43.848;10.510;2022-12-05T11:17:54;9.73;;;5.43;;
72850;SDS011;61171;43.848;10.510;2022-12-05T11:19:55;8.95;;;5.65;;
72850;SDS011;61171;43.848;10.510;2022-12-05T11:21:55;9.83;;;5.73;;
72850;SDS011;61171;43.848;10.510;2022-12-05T11:23:55;11.30;;;6.03;;
72850;SDS011;61171;43.848;10.510;2022-12-05T11:25:56;10.10;;;5.30;;
72850;SDS011;61171;43.848;10.510;2022-12-05T11:27:58;9.48;;;5.50;;
72850;SDS011;61171;43.848;10.510;2022-12-05T11:30:03;9.35;;;5.03;;
72850;SDS011;61171;43.848;10.510;2022-12-05T11:32:04;9.98;;;5.43;;
72850;SDS011;61171;43.848;10.510;2022-12-05T11:34:19;10.00;;;5.47;;
72850;SDS011;61171;43.848;10.510;2022-12-05T11:36:21;9.53;;;5.10;;
72850;SDS011;61171;43.848;10.510;2022-12-05T11:38:23;9.00;;;4.88;;
72850;SDS011;61171;43.848;10.510;2022-12-05T11:40:40;8.45;;;4.72;;
72850;SDS011;61171;43.848;10.510;2022-12-05T11:42:45;7.90;;;4.35;;
72850;SDS011;61171;43.848;10.510;2022-12-05T11:51:52;10.13;;;5.80;;
72850;SDS011;61171;43.848;10.510;2022-12-05T11:54:08;9.27;;;5.50;;
72850;SDS011;61171;43.848;10.510;2022-12-05T11:56:15;10.13;;;5.10;;
72850;SDS011;61171;43.848;10.510;2022-12-05T12:00:46;8.90;;;4.80;;
72850;SDS011;61171;43.848;10.510;2022-12-05T12:02:59;9.90;;;5.60;;
72850;SDS011;61171;43.848;10.510;2022-12-05T12:05:25;10.05;;;5.80;;
72850;SDS011;61171;43.848;10.510;2022-12-05T12:11:48;10.27;;;5.73;;
72850;SDS011;61171;43.848;10.510;2022-12-05T12:27:26;9.77;;;5.18;;
72850;SDS011;61171;43.848;10.510;2022-12-05T12:29:44;8.38;;;5.45;;
72850;SDS011;61171;43.848;10.510;2022-12-05T12:31:37;8.43;;;5.90;;
72850;SDS011;61171;43.848;10.510;2022-12-05T12:33:43;8.75;;;5.50;;
72850;SDS011;61171;43.848;10.510;2022-12-05T12:35:48;11.10;;;5.97;;
72850;SDS011;61171;43.848;10.510;2022-12-05T12:37:54;8.52;;;5.30;;
72850;SDS011;61171;43.848;10.510;2022-12-05T12:40:19;11.52;;;5.85;;
72850;SDS011;61171;43.848;10.510;2022-12-05T12:42:23;10.40;;;5.75;;
72850;SDS011;61171;43.848;10.510;2022-12-05T12:46:49;9.20;;;5.43;;
72850;SDS011;61171;43.848;10.510;2022-12-05T12:49:01;9.20;;;5.57;;
72850;SDS011;61171;43.848;10.510;2022-12-05T12:51:03;10.30;;;5.18;;
72850;SDS011;61171;43.848;10.510;2022-12-05T13:01:31;8.70;;;4.90;;
72850;SDS011;61171;43.848;10.510;2022-12-05T13:05:53;7.57;;;4.75;;
72850;SDS011;61171;43.848;10.510;2022-12-05T13:07:59;8.32;;;4.20;;
72850;SDS011;61171;43.848;10.510;2022-12-05T13:10:11;7.33;;;4.03;;
72850;SDS011;61171;43.848;10.510;2022-12-05T13:12:14;7.32;;;4.15;;
72850;SDS011;61171;43.848;10.510;2022-12-05T13:14:16;8.40;;;4.07;;
72850;SDS011;61171;43.848;10.510;2022-12-05T13:16:36;8.77;;;4.20;;
72850;SDS011;61171;43.848;10.510;2022-12-05T13:18:39;9.05;;;3.92;;
72850;SDS011;61171;43.848;10.510;2022-12-05T13:20:39;10.47;;;4.00;;
72850;SDS011;61171;43.848;10.510;2022-12-05T13:22:39;6.83;;;3.63;;
72850;SDS011;61171;43.848;10.510;2022-12-05T13:24:39;8.17;;;4.00;;
72850;SDS011;61171;43.848;10.510;2022-12-05T13:26:44;9.02;;;4.20;;
72850;SDS011;61171;43.848;10.510;2022-12-05T13:30:54;9.10;;;4.00;;
72850;SDS011;61171;43.848;10.510;2022-12-05T13:33:05;7.65;;;4.10;;
72850;SDS011;61171;43.848;10.510;2022-12-05T13:37:10;7.30;;;3.80;;
72850;SDS011;61171;43.848;10.510;2022-12-05T13:39:29;7.88;;;4.13;;
72850;SDS011;61171;43.848;10.510;2022-12-05T13:41:50;9.07;;;4.15;;
72850;SDS011;61171;43.848;10.510;2022-12-05T13:44:09;8.17;;;3.97;;
72850;SDS011;61171;43.848;10.510;2022-12-05T13:46:33;11.95;;;4.43;;
72850;SDS011;61171;43.848;10.510;2022-12-05T13:48:35;11.43;;;4.20;;
72850;SDS011;61171;43.848;10.510;2022-12-05T13:52:51;8.88;;;4.50;;
72850;SDS011;61171;43.848;10.510;2022-12-05T13:57:43;7.40;;;3.80;;
72850;SDS011;61171;43.848;10.510;2022-12-05T14:01:56;7.95;;;4.13;;
72850;SDS011;61171;43.848;10.510;2022-12-05T14:03:57;9.93;;;4.27;;
72850;SDS011;61171;43.848;10.510;2022-12-05T14:05:58;9.88;;;4.20;;
72850;SDS011;61171;43.848;10.510;2022-12-05T14:07:58;8.37;;;3.83;;
72850;SDS011;61171;43.848;10.510;2022-12-05T14:09:59;8.30;;;4.37;;
72850;SDS011;61171;43.848;10.510;2022-12-05T14:14:11;12.00;;;4.63;;
72850;SDS011;61171;43.848;10.510;2022-12-05T14:20:30;7.97;;;4.53;;
72850;SDS011;61171;43.848;10.510;2022-12-05T14:22:52;9.07;;;4.10;;
72850;SDS011;61171;43.848;10.510;2022-12-05T14:25:05;9.50;;;4.10;;
72850;SDS011;61171;43.848;10.510;2022-12-05T14:27:13;7.40;;;4.00;;
72850;SDS011;61171;43.848;10.510;2022-12-05T14:31:36;7.82;;;4.18;;
72850;SDS011;61171;43.848;10.510;2022-12-05T14:33:38;7.83;;;4.20;;
72850;SDS011;61171;43.848;10.510;2022-12-05T14:35:40;9.45;;;4.28;;
72850;SDS011;61171;43.848;10.510;2022-12-05T14:37:51;11.07;;;5.03;;
72850;SDS011;61171;43.848;10.510;2022-12-05T14:39:55;8.50;;;4.18;;
72850;SDS011;61171;43.848;10.510;2022-12-05T14:41:59;9.38;;;4.45;;
72850;SDS011;61171;43.848;10.510;2022-12-05T14:44:00;9.57;;;3.65;;
72850;SDS011;61171;43.848;10.510;2022-12-05T14:46:02;6.97;;;3.40;;